Time;durP1;ratioP1;P1;durP2;ratioP2;P2;SDS_P1;SDS_P2;PMS_P1;PMS_P2;Temp;Humidity;BMP_temperature;BMP_pressure;BME280_temperature;BME280_humidity;BME280_pressure;Samples;Min_cycle;Max_cycle;Signal;HPM_P1;HPM_P2
2021/01/18 00:01:44;;;;;;;56.65;30.38;;;;;;;-2.71;74.57;101414.69;5014205;28;20034;-93
2021/01/18 00:04:11;;;;;;;54.22;28.55;;;;;;;-3.08;74.60;101323.31;5016251;28;20053;-92
2021/01/18 00:06:38;;;;;;;54.63;27.40;;;;;;;-2.01;73.68;101477.69;5024080;28;20088;-95
2021/01/18 00:09:05;;;;;;;54.50;28.45;;;;;;;-2.29;73.99;101420.69;5021531;28;20057;-91
2021/01/18 00:11:32;;;;;;;56.20;30.70;;;;;;;-2.09;74.38;101460.31;5016769;28;20415;-91
2021/01/18 00:14:29;;;;;;;65.47;33.42;;;;;;;-1.98;75.35;101463.81;5056301;28;20013;-86
2021/01/18 00:17:20;;;;;;;80.40;33.05;;;;;;;-2.53;75.77;101378.66;5043437;28;20458;-87
2021/01/18 00:19:47;;;;;;;74.57;35.22;;;;;;;-2.29;75.38;101374.56;5008533;28;20034;-90
2021/01/18 00:22:14;;;;;;;66.50;35.13;;;;;;;-2.22;75.67;101386.53;5014164;28;20037;-90
2021/01/18 00:24:41;;;;;;;74.65;38.80;;;;;;;-2.47;76.47;101337.41;5015204;28;20025;-89
2021/01/18 00:27:07;;;;;;;65.45;34.67;;;;;;;-2.50;76.13;101299.75;5033208;28;20045;-89
2021/01/18 00:29:34;;;;;;;70.28;39.80;;;;;;;-1.53;76.57;101440.44;5014661;28;20108;-88
2021/01/18 00:32:01;;;;;;;76.95;38.47;;;;;;;-1.86;76.71;101413.78;5015494;28;20125;-88
2021/01/18 00:34:29;;;;;;;76.35;42.70;;;;;;;-2.36;77.93;101336.34;4995995;28;20052;-88
2021/01/18 00:36:55;;;;;;;82.18;43.70;;;;;;;-2.68;79.26;101246.28;5016521;28;20053;-90
2021/01/18 00:39:22;;;;;;;84.00;45.70;;;;;;;-2.25;79.60;101290.00;5032196;28;20789;-90
2021/01/18 00:41:49;;;;;;;92.50;49.17;;;;;;;-2.11;79.31;101291.38;5014816;28;20041;-87
2021/01/18 00:44:16;;;;;;;86.75;48.15;;;;;;;-1.72;80.49;101360.81;5032753;28;20022;-90
2021/01/18 00:46:46;;;;;;;99.85;51.92;;;;;;;-2.17;80.45;101232.28;5031566;28;20033;-88
2021/01/18 00:49:12;;;;;;;;;;;;;;;-1.00;80.78;101465.09;5015237;28;20044;-90
2021/01/18 00:51:39;;;;;;;90.55;48.53;;;;;;;-1.89;81.17;101315.50;5032420;28;19917;-91
2021/01/18 00:54:06;;;;;;;100.70;52.92;;;;;;;-1.84;82.36;101335.75;5032050;28;20504;-86
2021/01/18 00:56:33;;;;;;;100.30;54.88;;;;;;;-2.15;82.68;101279.09;5014447;28;20497;-90
2021/01/18 00:59:00;;;;;;;106.45;55.92;;;;;;;-1.06;83.43;101457.56;5015403;28;20029;-89
2021/01/18 01:01:27;;;;;;;108.30;54.15;;;;;;;-1.82;84.33;101336.47;5020612;28;20025;-90
2021/01/18 01:03:54;;;;;;;116.10;60.78;;;;;;;-2.84;84.56;101164.78;5031554;28;20120;-88
2021/01/18 01:06:21;;;;;;;113.57;55.28;;;;;;;-1.88;83.92;101301.78;5015460;28;20060;-90
2021/01/18 01:08:48;;;;;;;115.78;59.03;;;;;;;-2.15;84.26;101238.41;5014871;28;20073;-86
2021/01/18 01:11:14;;;;;;;117.60;63.33;;;;;;;-1.69;85.07;101338.78;5014885;28;20040;-87
2021/01/18 01:13:41;;;;;;;130.38;61.97;;;;;;;-0.80;84.54;101462.19;5033647;28;20029;-88
2021/01/18 01:16:08;;;;;;;126.53;61.20;;;;;;;-1.44;84.53;101370.75;5014422;28;20120;-88
2021/01/18 01:18:35;;;;;;;119.53;64.47;;;;;;;-1.20;84.09;101401.91;5029869;28;20020;-88
2021/01/18 01:21:02;;;;;;;117.82;63.33;;;;;;;-1.02;83.35;101382.84;5024248;28;20125;-88
2021/01/18 01:23:29;;;;;;;101.22;55.25;;;;;;;-0.64;79.93;101415.22;5011205;28;20029;-88
2021/01/18 01:25:56;;;;;;;113.88;61.00;;;;;;;-0.99;78.58;101336.31;5031464;28;20120;-87
2021/01/18 01:28:22;;;;;;;123.55;59.05;;;;;;;-0.54;78.50;101412.41;5031594;28;20025;-87
2021/01/18 01:30:49;;;;;;;102.65;54.63;;;;;;;-0.64;76.04;101355.41;5030898;28;20083;-86
2021/01/18 01:33:16;;;;;;;89.65;48.63;;;;;;;0.06;72.89;101452.38;5031219;28;20030;-86
2021/01/18 01:35:43;;;;;;;84.70;46.00;;;;;;;-0.13;72.04;101425.41;5016213;28;20060;-85
2021/01/18 01:38:10;;;;;;;85.88;45.40;;;;;;;0.12;70.62;101429.94;5031513;28;20157;-87
2021/01/18 01:40:37;;;;;;;76.25;40.75;;;;;;;-0.32;69.62;101411.00;5009622;28;20430;-87
2021/01/18 01:43:05;;;;;;;67.05;31.60;;;;;;;-0.28;61.77;101358.81;5011696;28;20034;-84
2021/01/18 01:45:32;;;;;;;64.28;30.38;;;;;;;-0.09;62.31;101416.75;5010452;28;20030;-86
2021/01/18 01:48:00;;;;;;;57.22;31.73;;;;;;;-0.36;60.43;101312.50;5025791;28;20025;-86
2021/01/18 01:50:31;;;;;;;57.67;30.98;;;;;;;0.58;57.83;101466.88;5013155;28;20034;-87
2021/01/18 01:53:15;;;;;;;64.57;31.98;;;;;;;-0.02;59.93;101362.50;5031473;28;20077;-87
2021/01/18 01:55:42;;;;;;;70.03;33.95;;;;;;;-0.36;60.77;101244.50;5030097;28;20101;-87
2021/01/18 01:58:09;;;;;;;55.35;31.10;;;;;;;0.12;58.97;101358.31;5030939;28;20056;-85
2021/01/18 02:00:39;;;;;;;60.47;31.17;;;;;;;0.71;59.46;101428.22;5033967;28;20608;-86
2021/01/18 02:03:11;;;;;;;65.78;33.28;;;;;;;0.77;59.08;101419.38;5013657;28;20114;-87
2021/01/18 02:05:39;;;;;;;69.55;36.80;;;;;;;0.47;60.48;101401.78;5013474;28;20037;-86
2021/01/18 02:08:10;;;;;;;65.75;33.33;;;;;;;1.16;58.95;101463.38;5013690;28;20172;-85
2021/01/18 02:10:38;;;;;;;59.85;31.17;;;;;;;0.38;58.67;101324.63;5037735;28;20028;-86
2021/01/18 02:13:32;;;;;;;56.88;32.28;;;;;;;0.47;58.70;101448.13;5029396;28;20025;-85
2021/01/18 02:16:04;;;;;;;70.03;31.02;;;;;;;0.83;58.96;101480.53;5014823;28;20120;-86
2021/01/18 02:19:02;;;;;;;62.60;31.02;;;;;;;1.01;58.65;101472.22;5014793;28;20064;-88
2021/01/18 02:21:47;;;;;;;57.88;29.88;;;;;;;0.82;57.46;101485.16;5029990;28;20030;-92
2021/01/18 02:24:32;;;;;;;63.13;31.15;;;;;;;0.89;57.31;101482.59;5031023;28;20489;-87
2021/01/18 02:27:23;;;;;;;64.55;32.53;;;;;;;0.97;56.46;101481.78;5015477;28;20065;-89
2021/01/18 02:30:24;;;;;;;54.20;29.15;;;;;;;0.19;57.14;101432.00;5031348;28;20092;-88
2021/01/18 02:33:11;;;;;;;69.18;32.03;;;;;;;0.44;58.11;101481.13;5023334;28;20037;-90
2021/01/18 02:36:07;;;;;;;55.15;28.98;;;;;;;0.64;58.30;101488.00;5010098;28;20518;-89
2021/01/18 02:38:52;;;;;;;63.50;31.27;;;;;;;0.37;59.08;101468.16;4994024;28;20076;-90
2021/01/18 02:41:36;;;;;;;58.05;29.55;;;;;;;0.60;58.19;101464.81;5009950;28;20083;-85
2021/01/18 02:44:10;;;;;;;57.20;30.17;;;;;;;-0.38;58.63;101313.69;5018970;28;20486;-87
2021/01/18 02:46:38;;;;;;;59.38;31.85;;;;;;;-1.17;59.99;101195.03;5035330;28;20025;-88
2021/01/18 02:49:06;;;;;;;63.17;31.80;;;;;;;0.48;59.71;101449.81;5034381;28;20048;-90
2021/01/18 02:51:39;;;;;;;68.65;29.65;;;;;;;-0.81;60.40;101281.03;5016854;28;20071;-90
2021/01/18 02:54:06;;;;;;;55.60;29.27;;;;;;;-0.70;60.98;101299.78;5025162;28;20047;-89
2021/01/18 02:56:34;;;;;;;60.55;29.00;;;;;;;-0.35;61.20;101375.97;5042018;28;20535;-89
2021/01/18 02:59:03;;;;;;;61.58;32.30;;;;;;;-0.50;60.96;101316.72;5034673;28;20044;-86
2021/01/18 03:02:07;;;;;;;59.35;29.42;;;;;;;0.47;61.24;101486.25;5018495;28;20025;-89
2021/01/18 03:04:43;;;;;;;51.60;27.50;;;;;;;0.08;61.73;101460.38;5017243;28;20025;-88
2021/01/18 03:07:28;;;;;;;43.65;23.15;;;;;;;-0.13;61.60;101407.19;5022286;28;20029;-88
2021/01/18 03:10:13;;;;;;;61.78;27.55;;;;;;;-0.27;62.32;101373.28;5015438;28;20113;-86
2021/01/18 03:12:46;;;;;;;55.25;27.92;;;;;;;-0.76;62.32;101317.63;5017444;28;20122;-87
2021/01/18 03:15:14;;;;;;;47.90;29.42;;;;;;;-0.33;62.05;101372.06;5031956;28;20056;-91
2021/01/18 03:17:43;;;;;;;60.38;28.80;;;;;;;0.30;63.08;101474.44;5033286;28;20104;-87
2021/01/18 03:20:12;;;;;;;50.47;28.98;;;;;;;-0.06;63.99;101479.03;5016124;28;20033;-86
2021/01/18 03:22:40;;;;;;;54.17;27.30;;;;;;;-0.64;64.69;101363.56;5034360;28;20068;-89
2021/01/18 03:25:08;;;;;;;45.13;26.50;;;;;;;-0.08;64.50;101429.34;5033021;28;20039;-88
2021/01/18 03:27:52;;;;;;;42.70;25.15;;;;;;;0.16;63.94;101475.91;5017178;28;20025;-90
2021/01/18 03:30:24;;;;;;;57.63;28.05;;;;;;;-1.39;65.43;101290.50;5017303;28;20033;-89
2021/01/18 03:32:52;;;;;;;41.80;22.25;;;;;;;-1.03;65.10;101349.38;5018092;28;20025;-88
2021/01/18 03:35:28;;;;;;;47.70;23.00;;;;;;;-0.73;66.74;101422.47;5023600;28;20040;-90
2021/01/18 03:37:58;;;;;;;46.83;26.00;;;;;;;-1.33;65.50;101280.88;5020042;28;20045;-84
2021/01/18 03:40:26;;;;;;;42.33;24.05;;;;;;;0.08;63.85;101461.25;5034035;28;20136;-86
2021/01/18 03:43:06;;;;;;;49.22;26.67;;;;;;;-0.55;63.88;101338.09;5033476;28;20048;-86
2021/01/18 03:45:36;;;;;;;38.70;21.40;;;;;;;-0.99;63.46;101290.09;5015758;28;20483;-83
2021/01/18 03:48:04;;;;;;;38.92;21.48;;;;;;;-1.15;63.59;101241.91;5015357;28;20372;-84
2021/01/18 03:50:31;;;;;;;38.40;19.52;;;;;;;0.01;63.20;101449.31;5012232;28;20033;-87
2021/01/18 03:52:58;;;;;;;37.50;22.67;;;;;;;0.11;63.62;101446.44;5022658;28;20025;-84
2021/01/18 03:55:26;;;;;;;46.67;21.75;;;;;;;-0.17;63.61;101414.00;5032985;28;20025;-88
2021/01/18 03:57:54;;;;;;;48.72;24.02;;;;;;;-0.31;64.74;101391.81;5016360;28;20123;-92
2021/01/18 04:00:26;;;;;;;53.40;23.65;;;;;;;-1.49;64.08;101189.25;5019801;28;20025;-93
2021/01/18 04:02:53;;;;;;;43.20;21.05;;;;;;;0.04;64.44;101416.28;5033980;28;20040;-91
2021/01/18 04:05:22;;;;;;;42.97;22.60;;;;;;;0.19;64.40;101460.09;5017803;28;20036;-88
2021/01/18 04:07:50;;;;;;;45.03;23.35;;;;;;;0.50;64.65;101477.75;5015569;28;20041;-89
2021/01/18 04:10:19;;;;;;;45.35;23.50;;;;;;;-0.29;64.71;101388.94;5018275;28;20064;-90
2021/01/18 04:12:48;;;;;;;37.25;23.67;;;;;;;-0.26;66.59;101467.50;5018147;28;20034;-93
2021/01/18 04:15:17;;;;;;;43.80;24.77;;;;;;;-1.26;67.56;101329.97;5016313;28;20029;-84
2021/01/18 04:17:47;;;;;;;42.67;24.55;;;;;;;-1.18;68.16;101346.34;5033590;28;20026;-88
2021/01/18 04:20:14;;;;;;;49.55;26.05;;;;;;;-0.63;68.33;101412.38;5031338;28;20049;-87
2021/01/18 04:22:52;;;;;;;43.97;21.65;;;;;;;-0.66;68.08;101447.19;5031860;28;20075;-81
2021/01/18 04:25:39;;;;;;;45.63;25.45;;;;;;;-0.31;65.61;101478.88;5033951;28;20029;-90
2021/01/18 04:31:29;;;;;;;43.58;19.98;;;;;;;-1.26;64.50;101279.22;5031136;28;20103;-93
2021/01/18 04:33:56;;;;;;;44.83;21.83;;;;;;;-1.19;65.54;101347.38;5012729;28;20110;-83
2021/01/18 04:36:23;;;;;;;51.08;22.33;;;;;;;-1.35;65.81;101282.91;5035069;28;20543;-85
2021/01/18 04:38:50;;;;;;;39.13;23.05;;;;;;;-1.60;65.85;101300.84;5016230;28;20470;-81
2021/01/18 04:41:17;;;;;;;47.22;23.27;;;;;;;-1.18;66.78;101402.59;5035321;28;20564;-80
2021/01/18 04:43:45;;;;;;;48.90;24.13;;;;;;;-1.75;67.96;101308.69;5021862;28;20414;-84
2021/01/18 04:46:17;;;;;;;44.25;24.45;;;;;;;-1.73;67.18;101323.81;5027028;28;20022;-82
2021/01/18 04:48:44;;;;;;;47.63;24.63;;;;;;;-2.38;66.50;101202.75;5045582;28;20109;-82
2021/01/18 04:51:21;;;;;;;49.78;23.95;;;;;;;-2.25;66.60;101213.22;5052455;28;20034;-84
2021/01/18 04:53:54;;;;;;;42.53;22.75;;;;;;;-0.80;66.96;101473.06;5026465;28;20009;-83
2021/01/18 04:56:53;;;;;;;34.63;20.65;;;;;;;-1.32;67.38;101404.84;5055536;28;20033;-84
2021/01/18 04:59:28;;;;;;;55.92;25.02;;;;;;;-1.31;68.37;101375.81;5047922;28;20051;-84
2021/01/18 05:02:08;;;;;;;53.35;24.77;;;;;;;-2.43;67.75;101192.38;5019236;28;20033;-85
2021/01/18 05:04:39;;;;;;;49.45;24.77;;;;;;;-0.38;67.16;101460.63;5025330;28;20065;-89
2021/01/18 05:07:44;;;;;;;42.13;21.25;;;;;;;-0.40;67.50;101473.53;5015091;28;20742;-91
2021/01/18 05:10:13;;;;;;;50.03;24.85;;;;;;;-1.36;66.89;101343.69;5035422;28;20049;-89
2021/01/18 05:12:44;;;;;;;48.22;22.73;;;;;;;-1.07;63.89;101364.28;5038996;28;20078;-90
2021/01/18 05:15:12;;;;;;;35.80;20.38;;;;;;;-0.91;62.48;101357.25;5028482;28;20036;-85
2021/01/18 05:17:47;;;;;;;47.03;22.38;;;;;;;-1.41;62.16;101340.56;5014188;28;20061;-82
2021/01/18 05:20:16;;;;;;;55.72;21.95;;;;;;;-0.66;62.88;101447.19;5032561;28;20032;-86
2021/01/18 05:22:45;;;;;;;38.88;19.25;;;;;;;-1.43;63.40;101293.72;5031661;28;20037;-87
2021/01/18 05:25:13;;;;;;;39.00;18.75;;;;;;;-0.32;64.48;101519.84;5030567;28;20086;-86
2021/01/18 05:28:09;;;;;;;37.97;21.02;;;;;;;-2.37;63.23;101226.16;5014129;28;20024;-82
2021/01/18 05:30:42;;;;;;;40.20;22.02;;;;;;;-1.22;62.66;101463.66;5014995;28;20079;-81
2021/01/18 05:33:15;;;;;;;40.28;23.42;;;;;;;-1.44;60.46;101395.19;5032919;28;20102;-83
2021/01/18 05:35:56;;;;;;;33.85;20.83;;;;;;;-2.04;58.45;101307.88;5014444;28;20127;-90
2021/01/18 05:38:48;;;;;;;43.72;18.13;;;;;;;-3.09;54.60;101140.13;5032548;28;20048;-94
2021/01/18 05:41:29;;;;;;;34.97;17.73;;;;;;;-1.04;53.55;101425.63;5004271;28;20106;-91
2021/01/18 05:44:02;;;;;;;32.65;17.38;;;;;;;-2.03;51.81;101279.75;4999390;28;20454;-91
2021/01/18 05:46:30;;;;;;;33.05;16.50;;;;;;;-1.13;50.62;101447.28;4994470;28;20040;-82
2021/01/18 05:49:05;;;;;;;40.45;16.80;;;;;;;-2.09;50.66;101267.66;4994157;28;20037;-82
2021/01/18 05:51:33;;;;;;;35.92;16.95;;;;;;;-1.11;49.97;101412.66;5003880;28;20037;-83
2021/01/18 05:54:02;;;;;;;31.83;15.60;;;;;;;-0.23;50.38;101524.34;5010730;28;20145;-85
2021/01/18 05:56:39;;;;;;;35.70;18.25;;;;;;;-0.92;49.71;101451.56;4994334;28;20026;-83
2021/01/18 05:59:23;;;;;;;34.00;13.48;;;;;;;-1.12;47.98;101421.00;4994422;28;20084;-82
2021/01/18 06:01:52;;;;;;;18.52;9.75;;;;;;;-1.59;46.74;101325.16;5012787;28;20026;-83
2021/01/18 06:04:21;;;;;;;23.25;10.35;;;;;;;-0.86;45.08;101459.09;4997254;28;20026;-82
2021/01/18 06:07:02;;;;;;;27.65;9.65;;;;;;;-1.20;45.05;101374.72;5011345;28;20394;-81
2021/01/18 06:09:50;;;;;;;16.40;8.32;;;;;;;-0.95;45.06;101454.59;5011071;28;20447;-80
2021/01/18 06:12:28;;;;;;;23.90;8.73;;;;;;;-0.56;45.30;101519.53;5011563;28;20129;-82
2021/01/18 06:15:14;;;;;;;29.80;11.18;;;;;;;-0.19;44.38;101552.97;5012654;28;20044;-81
2021/01/18 06:17:53;;;;;;;18.20;7.20;;;;;;;-2.19;42.37;101369.97;5010987;28;20056;-79
2021/01/18 06:20:22;;;;;;;19.17;7.75;;;;;;;-1.72;42.35;101415.09;4996341;28;20069;-81
2021/01/18 06:23:08;;;;;;;51.28;6.72;;;;;;;-1.69;41.10;101403.09;4996688;28;20092;-81
2021/01/18 06:25:37;;;;;;;18.58;6.72;;;;;;;-1.26;41.48;101493.00;5014003;28;20387;-80
2021/01/18 06:28:24;;;;;;;31.08;7.43;;;;;;;-0.77;41.11;101603.28;5012687;28;20018;-80
2021/01/18 06:31:08;;;;;;;10.95;5.53;;;;;;;-3.72;41.24;101161.44;5015700;28;20073;-81
2021/01/18 06:33:44;;;;;;;9.98;5.65;;;;;;;-1.98;41.01;101445.69;5015228;28;20057;-80
2021/01/18 06:36:21;;;;;;;24.17;6.10;;;;;;;-1.26;41.81;101582.69;5015366;28;20018;-81
2021/01/18 06:38:59;;;;;;;25.42;6.45;;;;;;;-0.99;43.09;101600.88;5016319;28;20053;-82
2021/01/18 06:41:29;;;;;;;22.02;5.15;;;;;;;-2.38;43.12;101355.47;5029840;28;20037;-83
2021/01/18 06:43:58;;;;;;;25.17;8.60;;;;;;;-2.02;43.57;101443.44;5031444;28;20482;-82
2021/01/18 06:46:31;;;;;;;16.35;6.88;;;;;;;-2.35;45.23;101447.41;5033202;28;20044;-81
2021/01/18 06:49:01;;;;;;;31.33;8.43;;;;;;;-2.43;45.40;101471.72;5034400;28;20049;-80
2021/01/18 06:51:28;;;;;;;;;;;;;;;-1.30;44.75;101625.59;5037261;28;20029;-81
2021/01/18 06:53:58;;;;;;;26.48;9.40;;;;;;;-2.16;44.86;101516.16;5036942;28;19974;-81
2021/01/18 06:56:43;;;;;;;17.30;6.57;;;;;;;-1.52;45.03;101648.56;5035119;28;20603;-81
2021/01/18 06:59:46;;;;;;;15.25;6.05;;;;;;;-1.44;45.31;101664.13;5037103;28;20025;-82
2021/01/18 07:02:27;;;;;;;19.52;7.05;;;;;;;-2.72;44.89;101412.97;5036662;28;20065;-81
2021/01/18 07:05:11;;;;;;;10.55;3.50;;;;;;;-2.17;43.64;101500.91;5033460;28;20037;-80
2021/01/18 07:07:39;;;;;;;25.20;7.50;;;;;;;-1.55;42.30;101655.16;5037451;28;20051;-80
2021/01/18 07:10:10;;;;;;;11.35;6.75;;;;;;;-1.53;40.83;101712.91;5026277;28;20029;-81
2021/01/18 07:12:37;;;;;;;21.60;7.28;;;;;;;-2.73;41.36;101489.88;5022652;28;20124;-79
2021/01/18 07:15:13;;;;;;;23.67;6.90;;;;;;;-3.37;40.36;101474.03;5033786;28;20026;-80
2021/01/18 07:17:43;;;;;;;15.88;6.20;;;;;;;-1.58;40.57;101704.34;5024205;28;20026;-81
2021/01/18 07:20:25;;;;;;;21.25;6.95;;;;;;;-2.33;41.08;101582.88;5013907;28;20053;-82
2021/01/18 07:23:07;;;;;;;21.63;5.47;;;;;;;-1.74;41.21;101720.38;5013630;28;20041;-80
2021/01/18 07:25:42;;;;;;;20.75;6.57;;;;;;;-2.26;41.79;101688.97;5036463;28;20049;-80
2021/01/18 07:28:13;;;;;;;15.93;5.75;;;;;;;-3.53;40.66;101517.00;5016544;28;20022;-80
2021/01/18 07:30:40;;;;;;;16.20;6.32;;;;;;;-2.11;40.85;101762.66;5016174;28;20029;-82
2021/01/18 07:33:18;;;;;;;14.77;5.95;;;;;;;-1.96;40.17;101766.66;5036193;28;20022;-80
2021/01/18 07:35:47;;;;;;;7.88;3.85;;;;;;;-1.90;39.85;101765.22;5038064;28;20036;-80
2021/01/18 07:38:29;;;;;;;14.57;5.82;;;;;;;-3.86;39.86;101496.38;5036622;28;20139;-80
2021/01/18 07:44:33;;;;;;;17.27;6.55;;;;;;;-3.11;40.44;101664.94;5036649;28;20057;-83
2021/01/18 07:50:08;;;;;;;13.10;7.60;;;;;;;-3.54;39.12;101577.56;5624762;23;20049;-82
2021/01/18 07:52:40;;;;;;;11.95;4.43;;;;;;;-2.65;37.85;101766.56;5059506;28;20037;-80
2021/01/18 07:55:22;;;;;;;20.33;7.78;;;;;;;-3.08;38.51;101792.03;5063750;28;20417;-80
2021/01/18 07:57:50;;;;;;;8.80;4.75;;;;;;;-3.96;38.11;101597.44;5067544;28;20036;-82
2021/01/18 08:00:24;;;;;;;11.80;5.82;;;;;;;-2.71;37.52;101813.19;5061193;28;20039;-83
2021/01/18 08:02:57;;;;;;;9.52;3.38;;;;;;;-2.79;37.77;101830.13;5070600;28;20033;-81
2021/01/18 08:05:31;;;;;;;18.20;6.13;;;;;;;-5.26;37.93;101475.00;5046574;28;20040;-83
2021/01/18 08:08:06;;;;;;;24.98;7.28;;;;;;;-3.91;37.97;101679.09;5075157;28;20032;-81
2021/01/18 08:10:48;;;;;;;15.70;5.93;;;;;;;-2.76;37.94;101861.53;5055229;28;20106;-80
2021/01/18 08:13:38;;;;;;;12.02;6.80;;;;;;;-2.65;38.23;101877.72;5253544;23;20070;-80
2021/01/18 08:16:41;;;;;;;13.18;5.35;;;;;;;-3.06;37.69;101887.59;4980685;28;20022;-84
2021/01/18 08:19:30;;;;;;;21.58;6.40;;;;;;;-5.63;37.64;101478.91;4958754;28;20030;-84
2021/01/18 08:22:07;;;;;;;14.50;6.10;;;;;;;-3.21;37.25;101901.44;4984587;28;20038;-78
2021/01/18 08:24:35;;;;;;;14.75;5.90;;;;;;;-2.87;36.76;101899.56;4981943;28;20061;-79
2021/01/18 08:27:06;;;;;;;11.95;4.80;;;;;;;-3.19;36.75;101923.00;4981314;28;20045;-80
2021/01/18 08:29:52;;;;;;;14.55;5.13;;;;;;;-3.19;37.04;101932.00;4986803;28;20489;-81
2021/01/18 08:32:24;;;;;;;16.45;5.53;;;;;;;-3.40;36.56;101956.31;4989386;28;20030;-79
2021/01/18 08:35:08;;;;;;;9.35;4.50;;;;;;;-3.57;36.15;101960.41;4975636;28;20043;-81
2021/01/18 08:37:38;;;;;;;8.40;3.47;;;;;;;-4.69;36.01;101709.84;4983745;28;20026;-83
2021/01/18 08:40:23;;;;;;;;;;;;;;;-3.49;35.45;101979.63;5121487;23;20102;-83
2021/01/18 08:42:55;;;;;;;11.70;5.30;;;;;;;-5.58;35.81;101686.31;4981227;28;19922;-81
2021/01/18 08:45:44;;;;;;;10.63;4.95;;;;;;;-3.94;35.84;101979.69;5046750;23;20356;-83
2021/01/18 08:48:56;;;;;;;10.20;4.47;;;;;;;-3.76;35.77;101993.56;4997397;28;20022;-84
2021/01/18 08:51:49;;;;;;;17.90;5.75;;;;;;;-3.74;36.25;101992.44;4978728;28;20102;-81
2021/01/18 08:54:38;;;;;;;12.10;4.10;;;;;;;-4.19;36.14;101957.28;5001169;28;20094;-81
2021/01/18 08:57:52;;;;;;;6.05;3.33;;;;;;;-3.83;36.04;101998.63;4979201;28;20042;-84
2021/01/18 09:00:47;;;;;;;16.75;4.25;;;;;;;-4.72;36.47;101877.63;5211161;23;20055;-84
2021/01/18 09:03:58;;;;;;;12.88;3.92;;;;;;;-3.83;36.71;102039.22;4955174;28;20032;-84
2021/01/18 09:06:51;;;;;;;14.55;5.07;;;;;;;-6.03;36.67;101768.84;5164668;23;20054;-82
2021/01/18 09:12:24;;;;;;;8.80;3.63;;;;;;;-7.05;37.12;101594.94;5196318;23;20061;-83
2021/01/18 09:14:53;;;;;;;7.70;3.13;;;;;;;-5.97;37.20;101752.19;4998296;28;20026;-83
2021/01/18 09:17:25;;;;;;;13.55;5.95;;;;;;;-7.28;37.44;101605.56;4997741;28;20034;-83
2021/01/18 09:27:47;;;;;;;13.45;6.45;;;;;;;-4.26;38.28;102081.34;5219312;23;20061;-84
2021/01/18 09:30:20;;;;;;;12.40;4.68;;;;;;;-5.32;38.17;101956.03;5003226;28;20054;-83
2021/01/18 09:32:53;;;;;;;;;;;;;;;-4.26;38.38;102111.94;4989073;28;20038;-83
2021/01/18 09:50:38;;;;;;;17.75;6.82;;;;;;;-7.62;39.30;101656.38;5060733;23;20040;-86
2021/01/18 09:56:35;;;;;;;24.45;10.52;;;;;;;-7.46;39.70;101703.72;4955196;29;20031;-83
2021/01/18 09:59:10;;;;;;;21.13;7.90;;;;;;;-5.54;40.20;102049.41;4905310;29;20075;-83
2021/01/18 10:01:39;;;;;;;19.83;8.48;;;;;;;-5.71;40.22;102035.31;4948502;29;20036;-83
2021/01/18 10:04:08;;;;;;;7.53;4.22;;;;;;;-6.32;40.00;101984.81;4947614;29;20064;-83
2021/01/18 10:06:37;;;;;;;16.10;6.57;;;;;;;-6.75;40.57;101864.78;4935767;29;20028;-83
2021/01/18 10:09:09;;;;;;;19.40;8.82;;;;;;;-5.78;40.63;102037.59;4929875;29;20039;-83
2021/01/18 10:11:43;;;;;;;21.58;7.40;;;;;;;-7.12;40.28;101798.25;4924442;29;20043;-83
2021/01/18 10:14:33;;;;;;;16.73;6.85;;;;;;;-4.73;40.06;102224.53;4929138;29;20044;-84
2021/01/18 10:17:09;;;;;;;27.95;9.25;;;;;;;-4.91;40.56;102197.03;4932073;29;20035;-84
2021/01/18 10:19:42;;;;;;;17.70;8.13;;;;;;;-5.54;41.32;102108.78;4945833;29;20028;-82
2021/01/18 10:22:18;;;;;;;25.02;7.60;;;;;;;-5.32;41.40;102131.53;4919999;29;20044;-82
2021/01/18 10:24:58;;;;;;;17.02;7.15;;;;;;;-5.18;41.14;102150.28;4933996;29;20064;-80
2021/01/18 10:27:29;;;;;;;14.27;6.97;;;;;;;-6.03;42.20;102043.91;4953252;29;20023;-82
2021/01/18 10:30:13;;;;;;;14.02;5.72;;;;;;;-5.73;41.62;102111.94;4958434;29;20023;-81
2021/01/18 10:32:41;;;;;;;18.73;8.90;;;;;;;-6.46;42.03;101989.34;4942469;29;20023;-81
2021/01/18 10:35:32;;;;;;;13.98;6.13;;;;;;;-5.04;42.51;102207.84;4940960;29;20015;-81
2021/01/18 10:38:20;;;;;;;24.42;8.93;;;;;;;-5.56;43.39;102189.00;4902309;29;20048;-82
2021/01/18 10:41:06;;;;;;;17.52;6.95;;;;;;;-4.82;42.64;102217.94;4926706;29;20032;-81
2021/01/18 10:43:33;;;;;;;17.08;8.45;;;;;;;-6.03;42.90;102070.00;4924286;29;20068;-83
2021/01/18 10:46:14;;;;;;;10.45;5.38;;;;;;;-6.70;42.84;101953.34;4925967;29;20038;-81
2021/01/18 10:48:43;;;;;;;23.88;10.27;;;;;;;-5.47;43.31;102161.34;4944851;29;20051;-81
2021/01/18 10:51:25;;;;;;;28.63;10.88;;;;;;;-4.95;43.17;102251.28;4932860;29;20091;-82
2021/01/18 10:54:01;;;;;;;14.68;8.30;;;;;;;-5.40;43.55;102197.75;4940843;29;20119;-82
2021/01/18 10:56:34;;;;;;;22.15;10.02;;;;;;;-5.05;43.76;102268.25;4951882;29;20098;-82
2021/01/18 10:59:05;;;;;;;25.73;11.00;;;;;;;-5.53;43.27;102170.75;4948738;29;20043;-83
2021/01/18 11:01:32;;;;;;;29.48;10.57;;;;;;;-5.53;43.83;102186.09;4934120;29;20024;-83
2021/01/18 11:04:08;;;;;;;16.30;8.70;;;;;;;-5.95;43.66;102113.47;4945029;29;20031;-83
2021/01/18 11:06:35;;;;;;;22.63;7.82;;;;;;;-5.17;44.09;102278.94;4953485;28;20028;-83
2021/01/18 11:09:04;;;;;;;39.83;12.30;;;;;;;-7.39;44.38;101904.13;4957158;28;20030;-83
2021/01/18 11:11:38;;;;;;;33.13;11.40;;;;;;;-7.32;44.87;101943.13;4960150;29;20032;-83
2021/01/18 11:14:08;;;;;;;24.88;10.13;;;;;;;-6.45;44.08;102060.28;4961375;28;20030;-82
2021/01/18 11:16:36;;;;;;;23.23;9.32;;;;;;;-6.41;45.02;102136.41;4963393;29;20023;-83
2021/01/18 11:19:07;;;;;;;15.27;8.35;;;;;;;-5.78;44.82;102233.66;4962347;29;20039;-83
2021/01/18 11:21:38;;;;;;;28.77;9.63;;;;;;;-7.36;44.83;101984.66;4961866;29;20038;-83
2021/01/18 11:24:05;;;;;;;13.85;7.53;;;;;;;-6.78;45.02;102056.25;4949574;29;20040;-82
2021/01/18 11:26:45;;;;;;;17.42;7.43;;;;;;;-6.83;45.25;102026.94;4949381;29;20035;-83
2021/01/18 11:29:15;;;;;;;28.40;8.80;;;;;;;-6.50;45.96;102117.19;4962150;28;20056;-84
2021/01/18 11:31:49;;;;;;;16.75;8.15;;;;;;;-7.46;46.21;101995.16;4930855;29;20044;-83
2021/01/18 11:34:17;;;;;;;29.38;10.75;;;;;;;-8.50;46.06;101811.00;4926495;29;20048;-83
2021/01/18 11:37:00;;;;;;;26.83;6.72;;;;;;;-5.57;45.74;102309.63;4942292;29;20129;-83
2021/01/18 11:39:47;;;;;;;28.65;11.10;;;;;;;-9.00;45.69;101709.47;4963950;28;20050;-83
2021/01/18 11:42:14;;;;;;;23.58;10.27;;;;;;;-7.12;45.38;102032.44;4966544;29;20027;-83
2021/01/18 11:45:09;;;;;;;22.88;10.68;;;;;;;-5.53;45.77;102324.63;4946530;28;20020;-84
2021/01/18 11:48:04;;;;;;;32.20;10.00;;;;;;;-5.46;46.11;102316.09;4958251;28;20031;-84
2021/01/18 11:50:44;;;;;;;15.55;6.75;;;;;;;-5.69;46.02;102321.22;4961648;29;20067;-83
2021/01/18 11:53:19;;;;;;;22.95;8.77;;;;;;;-5.75;46.33;102324.34;4968996;29;20007;-83
2021/01/18 11:56:12;;;;;;;20.05;8.43;;;;;;;-5.57;46.25;102336.59;4954323;29;20047;-84
2021/01/18 11:59:05;;;;;;;23.10;7.97;;;;;;;-8.41;46.75;101930.41;4947696;28;20047;-85
2021/01/18 12:01:47;;;;;;;17.58;7.00;;;;;;;-5.77;46.67;102356.81;4944559;29;20032;-83
2021/01/18 12:04:24;;;;;;;27.30;10.95;;;;;;;-7.50;46.81;102090.50;4956313;29;20040;-83
2021/01/18 12:07:05;;;;;;;13.38;5.47;;;;;;;-6.15;45.29;102288.31;4934222;29;20072;-83
2021/01/18 12:10:04;;;;;;;30.58;9.45;;;;;;;-7.08;46.12;102184.72;4943148;29;20036;-84
2021/01/18 12:12:54;;;;;;;14.35;6.82;;;;;;;-5.95;46.73;102386.75;4923698;29;20091;-83
2021/01/18 12:15:25;;;;;;;;;;;;;;;-5.92;46.64;102394.66;4942832;29;20019;-85
2021/01/18 12:17:55;;;;;;;13.45;6.05;;;;;;;-6.12;47.51;102389.72;4934172;29;19918;-84
2021/01/18 12:20:54;;;;;;;16.42;5.82;;;;;;;-6.36;47.37;102403.81;4962784;28;20027;-84
2021/01/18 12:23:56;;;;;;;11.25;5.80;;;;;;;-9.86;47.26;101873.78;4961279;28;20111;-83
2021/01/18 12:26:25;;;;;;;19.75;6.88;;;;;;;-6.67;47.82;102417.38;4916049;29;20032;-83
2021/01/18 12:29:26;;;;;;;13.43;6.10;;;;;;;-8.66;46.54;102077.84;4903495;29;20026;-84
2021/01/18 12:32:20;;;;;;;9.68;5.22;;;;;;;-7.89;45.95;102262.31;4902524;29;20039;-84